Portknockie, United Kingdom
Current Conditions -  °F | °C
As of 7:50 AM on Friday 31 Oct 2014 (Local Time) from EGQS Reporting Station
Light Rain Light Rain  
Wind Chill: 57°   Ceiling: 10000
Heat Index: 57°   Visibility: 6mi
Dew Point: 52°   Wind: 5mph
Humidity: 82%   Direction: 180°S
Pressure: 29.68"   Gusts: NA
Location:  57.7°N, 2.86°W
Report Text: EGQS 310750Z 18004KT 9999 -RA FEW040 BKN100 14/11 Q1005 BLU NOSIG
Loading
Personal Weather Stations






























Interactive Weather Map New forecast layout! Learn more

10-Day Weather Forecast

Advertisements
Track Severe Weather on mobile